Marshfield, WI

6:53 PM CST on December 08, 2016 (GMT -0600)
Marshfield Municipal | | Change Station

Elev 1276 ft 44.64 °N, 90.19 °W | Updated 59 minutes ago

Overcast
Overcast
21 °F
Feels Like 9 °F
N
12
Wind Variable Wind from WNW

Today
High -- | Low -- °F
--% Chance of Precip.
Yesterday
High -- | Low -- °F
Precip. -- in
Pressure 30.38 in
Visibility 10.0 miles
Clouds Overcast 4200 ft
Windchill 9 °F
Dew Point 15 °F
Humidity 78%
Rainfall 0.00 in
Snow Depth Not available.
7:25 AM 4:20 PM
Waxing Gibbous, 68% visible
METAR KMFI 082354Z AUTO 30010KT 10SM OVC042 M06/M09 A3030 RMK AO2 SLP285 60000 T10611094 11044 21067 51016
Pressure 30.38 in
Visibility 10.0 miles
Clouds Overcast 4200 ft
Windchill 9 °F
Dew Point 15 °F
Humidity 78%
Rainfall 0.00 in
Snow Depth Not available.
7:25 AM 4:20 PM
Waxing Gibbous, 68% visible
METAR KMFI 082354Z AUTO 30010KT 10SM OVC042 M06/M09 A3030 RMK AO2 SLP285 60000 T10611094 11044 21067 51016

10-Day Weather Forecast

Almanac

Astronomy

Dec. 08, 2016 Rise Set
Actual Time
Civil Twilight
Nautical Twilight
Astronomical Twilight
Moon
Length of Visible Light
Length of Day
Tomorrow will be .
, % of the Moon is Illuminated

Today's Extremes

State Highs State Lows

Community

WunderPhotos

Upload Photos

1,956,277 photos uploaded!

WunderBlog® & News

Nearby

Air Quality

  Air Quality AQ Index Pollutant
Not available.

Snow Depth

Station Depth Elevation

Earthquake Activity

City Distance Mag. Time & Date
Minimum magnitude displayed is 2.5.

Coastal Water Temperatures

Place Temperature

Stations

Nearby Weather Stations

Station Location Temp. Windchill Dew Point Humidity Wind Precip. Elev Updated Type
                   

Watches & Warnings

There are currently no watches in effect.